createdAt,value
2022-09-15T00:00:27.880Z,84.80
2022-09-15T00:05:52.933Z,84.50
2022-09-15T00:10:58.555Z,84.30
2022-09-15T00:16:03.834Z,83.50
2022-09-15T00:21:08.744Z,83.20
2022-09-15T00:26:14.227Z,82.90
2022-09-15T00:31:21.419Z,83.20
2022-09-15T00:36:26.286Z,83.40
2022-09-15T00:41:30.090Z,83.40
2022-09-15T00:46:36.468Z,83.40
2022-09-15T00:51:43.886Z,83.30
2022-09-15T00:56:52.544Z,83.20
2022-09-15T01:02:05.408Z,83.30
2022-09-15T01:07:13.680Z,83.30
2022-09-15T01:12:17.863Z,83.90
2022-09-15T01:23:08.183Z,84.80
2022-09-15T01:28:34.452Z,84.90
2022-09-15T01:33:48.616Z,84.70
2022-09-15T01:39:00.997Z,84.60
2022-09-15T01:44:06.610Z,84.20
2022-09-15T01:49:16.889Z,84.30
2022-09-15T01:54:22.754Z,84.30
2022-09-15T01:59:26.596Z,84.30
2022-09-15T02:04:34.870Z,84.30
2022-09-15T02:09:45.965Z,84.60
2022-09-15T02:14:57.283Z,85.60
2022-09-15T02:20:10.113Z,85.70
2022-09-15T02:25:17.442Z,86.10
2022-09-15T02:30:22.343Z,86.30
2022-09-15T02:35:29.437Z,86.10
2022-09-15T02:40:33.334Z,86.70
2022-09-15T02:45:36.946Z,86.70
2022-09-15T02:50:42.129Z,86.50
2022-09-15T02:55:45.649Z,86.70
2022-09-15T03:00:49.209Z,86.20
2022-09-15T03:05:53.913Z,86.10
2022-09-15T03:10:59.093Z,86.30
2022-09-15T03:16:08.906Z,86.50
2022-09-15T03:21:15.776Z,86.00
2022-09-15T03:26:19.094Z,85.80
2022-09-15T03:31:22.767Z,86.80
2022-09-15T03:36:27.653Z,86.70
2022-09-15T03:41:31.163Z,85.80
2022-09-15T03:46:35.719Z,86.40
2022-09-15T03:51:41.084Z,86.20
2022-09-15T03:56:47.326Z,86.00
2022-09-15T04:01:51.547Z,86.10
2022-09-15T04:06:56.238Z,86.80
2022-09-15T04:11:59.549Z,88.30
2022-09-15T04:17:02.839Z,87.10
2022-09-15T04:22:08.017Z,87.50
2022-09-15T04:27:11.592Z,87.20
2022-09-15T04:32:14.917Z,87.40
2022-09-15T04:37:19.657Z,88.10
2022-09-15T04:42:24.002Z,88.50
2022-09-15T04:47:27.476Z,87.50
2022-09-15T04:52:32.336Z,86.90
2022-09-15T04:57:35.662Z,87.70
2022-09-15T05:02:38.963Z,88.80
2022-09-15T05:07:43.879Z,88.50
2022-09-15T05:12:47.340Z,88.40
2022-09-15T05:17:50.831Z,88.60
2022-09-15T05:22:55.478Z,88.70
2022-09-15T05:27:58.807Z,88.80
2022-09-15T05:33:02.313Z,88.70
2022-09-15T05:38:07.199Z,88.60
2022-09-15T05:43:11.440Z,88.00
2022-09-15T05:48:14.748Z,87.90
2022-09-15T05:53:20.062Z,88.20
2022-09-15T05:58:23.390Z,88.30
2022-09-15T06:03:30.809Z,88.70
2022-09-15T06:08:37.637Z,88.70
2022-09-15T06:13:41.710Z,89.30
2022-09-15T06:18:48.748Z,88.40
2022-09-15T06:23:55.577Z,88.20
2022-09-15T06:29:00.490Z,88.10
2022-09-15T06:34:04.088Z,88.00
2022-09-15T06:39:09.848Z,88.80
2022-09-15T06:44:13.554Z,87.50
2022-09-15T06:49:16.917Z,86.30
2022-09-15T06:54:22.119Z,86.70
2022-09-15T06:59:25.501Z,87.10
2022-09-15T07:04:36.958Z,87.10
2022-09-15T07:09:42.829Z,86.90
2022-09-15T07:14:48.483Z,84.40
2022-09-15T07:19:51.778Z,84.60
2022-09-15T07:24:56.420Z,85.50
2022-09-15T07:29:59.869Z,85.00
2022-09-15T07:35:03.409Z,82.40
2022-09-15T07:40:09.664Z,81.50
2022-09-15T07:45:13.404Z,81.60
2022-09-15T07:50:16.890Z,82.80
2022-09-15T07:55:21.766Z,81.50
2022-09-15T08:00:25.147Z,79.80
2022-09-15T08:05:29.574Z,79.90
2022-09-15T08:10:34.779Z,79.70
2022-09-15T08:15:38.849Z,78.30
2022-09-15T08:20:43.222Z,80.20
2022-09-15T08:25:48.311Z,79.40
2022-09-15T08:30:51.602Z,78.70
2022-09-15T08:35:55.234Z,77.90
2022-09-15T08:41:03.533Z,77.90
2022-09-15T08:46:11.136Z,75.50
2022-09-15T08:51:22.119Z,74.80
2022-09-15T08:56:29.523Z,74.20
2022-09-15T09:01:43.887Z,74.10
2022-09-15T09:07:00.604Z,74.20
2022-09-15T09:12:26.454Z,74.50
2022-09-15T09:17:46.189Z,74.00
2022-09-15T09:22:54.218Z,70.90
2022-09-15T09:28:00.415Z,71.20
2022-09-15T09:33:26.235Z,72.60
2022-09-15T09:38:32.705Z,72.30
2022-09-15T09:43:38.264Z,70.50
2022-09-15T09:48:47.538Z,71.00
2022-09-15T09:53:54.835Z,70.30
2022-09-15T09:58:59.955Z,71.60
2022-09-15T10:04:19.904Z,72.20
2022-09-15T10:09:23.552Z,72.40
2022-09-15T10:14:30.921Z,70.90
2022-09-15T10:19:37.214Z,70.40
2022-09-15T10:24:41.549Z,70.10
2022-09-15T10:29:46.524Z,69.00
2022-09-15T10:34:50.025Z,68.80
2022-09-15T10:39:55.748Z,69.70
2022-09-15T10:45:15.360Z,68.00
2022-09-15T10:50:29.602Z,68.40
2022-09-15T10:55:52.668Z,67.10
2022-09-15T11:01:07.335Z,67.20
2022-09-15T11:06:19.667Z,67.80
2022-09-15T11:11:31.038Z,67.00
2022-09-15T11:16:51.195Z,66.40
2022-09-15T11:21:59.190Z,65.40
2022-09-15T11:27:06.497Z,65.00
2022-09-15T11:32:18.490Z,63.40
2022-09-15T11:37:27.729Z,63.00
2022-09-15T11:42:37.224Z,62.70
2022-09-15T11:47:46.480Z,62.20
2022-09-15T11:52:56.203Z,62.40
2022-09-15T11:58:22.021Z,62.90
2022-09-15T12:03:33.800Z,63.10
2022-09-15T12:08:41.525Z,63.10
2022-09-15T12:13:45.717Z,63.70
2022-09-15T12:18:55.878Z,64.80
2022-09-15T12:24:04.693Z,64.70
2022-09-15T12:29:31.383Z,64.60
2022-09-15T12:34:38.518Z,65.60
2022-09-15T12:39:43.166Z,65.20
2022-09-15T12:44:50.937Z,64.90
2022-09-15T12:49:58.809Z,65.20
2022-09-15T12:55:04.778Z,65.40
2022-09-15T13:00:28.869Z,65.20
2022-09-15T13:06:12.036Z,66.10
2022-09-15T13:11:18.350Z,64.90
2022-09-15T13:16:28.515Z,65.20
2022-09-15T13:21:36.821Z,65.50
2022-09-15T13:26:41.743Z,65.50
2022-09-15T13:31:53.567Z,66.70
2022-09-15T13:42:52.298Z,64.70
2022-09-15T13:48:10.165Z,65.40
2022-09-15T13:53:45.568Z,66.00
2022-09-15T13:58:58.313Z,64.70
2022-09-15T14:04:12.849Z,65.20
2022-09-15T14:09:19.832Z,64.30
2022-09-15T14:14:37.374Z,63.70
2022-09-15T14:19:41.415Z,64.60
2022-09-15T14:24:46.253Z,65.30
2022-09-15T14:29:54.488Z,61.70
2022-09-15T14:35:01.566Z,61.20
2022-09-15T14:40:20.635Z,60.90
2022-09-15T14:50:59.374Z,61.70
2022-09-15T14:56:08.406Z,62.00
2022-09-15T15:01:16.653Z,62.30
2022-09-15T15:06:31.017Z,62.20
2022-09-15T15:11:37.618Z,62.80
2022-09-15T15:16:52.195Z,62.50
2022-09-15T15:22:08.518Z,62.80
2022-09-15T15:27:51.464Z,63.20
2022-09-15T15:32:55.184Z,63.80
2022-09-15T15:38:07.600Z,63.10
2022-09-15T15:43:23.478Z,62.20
2022-09-15T15:48:27.466Z,60.80
2022-09-15T15:53:30.749Z,59.90
2022-09-15T15:58:35.817Z,60.10
2022-09-15T16:03:39.228Z,61.00
2022-09-15T16:08:44.967Z,61.50
2022-09-15T16:13:49.695Z,61.70
2022-09-15T16:18:53.824Z,62.20
2022-09-15T16:23:57.093Z,62.50
2022-09-15T16:29:01.962Z,62.80
2022-09-15T16:34:05.955Z,62.60
2022-09-15T16:39:09.393Z,62.20
2022-09-15T16:44:20.199Z,62.80
2022-09-15T16:49:24.926Z,62.80
2022-09-15T16:54:28.505Z,62.90
2022-09-15T16:59:33.230Z,63.30
2022-09-15T17:04:36.536Z,63.70
2022-09-15T17:09:39.790Z,64.90
2022-09-15T17:14:44.496Z,64.60
2022-09-15T17:19:48.123Z,65.10
2022-09-15T17:24:51.469Z,65.10
2022-09-15T17:29:56.401Z,65.10
2022-09-15T17:34:59.767Z,65.50
2022-09-15T17:40:03.589Z,66.40
2022-09-15T17:45:17.589Z,66.60
2022-09-15T17:50:22.553Z,66.80
2022-09-15T17:55:29.875Z,66.50
2022-09-15T18:00:36.026Z,67.00
2022-09-15T18:05:39.390Z,67.80
2022-09-15T18:10:42.764Z,68.00
2022-09-15T18:15:49.123Z,67.70
2022-09-15T18:20:54.119Z,67.30
2022-09-15T18:25:58.158Z,66.80
2022-09-15T18:31:02.960Z,67.10
2022-09-15T18:36:08.302Z,66.70
2022-09-15T18:41:13.073Z,66.80
2022-09-15T18:46:18.143Z,66.80
2022-09-15T18:51:29.082Z,66.80
2022-09-15T18:56:38.290Z,66.80
2022-09-15T19:01:43.087Z,67.20
2022-09-15T19:06:46.583Z,67.50
2022-09-15T19:11:49.889Z,67.60
2022-09-15T19:16:58.100Z,67.60
2022-09-15T19:22:01.854Z,68.70
2022-09-15T19:27:08.075Z,68.10
2022-09-15T19:32:15.200Z,69.00
2022-09-15T19:37:24.316Z,68.80
2022-09-15T19:42:28.621Z,69.40
2022-09-15T19:47:33.277Z,69.40
2022-09-15T19:52:37.077Z,69.90
2022-09-15T19:57:41.214Z,70.70
2022-09-15T20:02:48.761Z,70.70
2022-09-15T20:07:52.238Z,71.40
2022-09-15T20:12:55.616Z,71.90
2022-09-15T20:18:00.696Z,72.80
2022-09-15T20:23:04.425Z,72.80
2022-09-15T20:28:07.886Z,72.90
2022-09-15T20:33:12.525Z,73.20
2022-09-15T20:38:18.777Z,72.90
2022-09-15T20:43:22.401Z,73.20
2022-09-15T20:48:28.909Z,73.10
2022-09-15T20:53:32.859Z,72.60
2022-09-15T20:58:37.581Z,72.20
2022-09-15T21:03:44.021Z,71.70
2022-09-15T21:08:48.554Z,71.70
2022-09-15T21:13:52.112Z,71.60
2022-09-15T21:18:58.116Z,71.40
2022-09-15T21:24:04.176Z,71.70
2022-09-15T21:29:07.677Z,71.60
2022-09-15T21:34:12.369Z,71.50
2022-09-15T21:39:15.935Z,71.50
2022-09-15T21:44:19.173Z,71.30
2022-09-15T21:49:24.219Z,71.80
2022-09-15T21:54:27.529Z,72.00
2022-09-15T21:59:30.862Z,72.50
2022-09-15T22:04:35.536Z,72.90
2022-09-15T22:09:39.890Z,73.00
2022-09-15T22:14:43.137Z,73.00
2022-09-15T22:19:47.967Z,73.10
2022-09-15T22:24:51.244Z,73.10
2022-09-15T22:29:54.763Z,72.90
2022-09-15T22:34:59.413Z,73.10
2022-09-15T22:40:03.119Z,72.90
2022-09-15T22:45:08.581Z,72.70
2022-09-15T22:50:13.284Z,72.60
2022-09-15T22:55:16.618Z,72.60
2022-09-15T23:00:20.509Z,72.50
2022-09-15T23:05:25.198Z,72.70
2022-09-15T23:10:29.565Z,72.70
2022-09-15T23:15:35.347Z,73.00
2022-09-15T23:20:40.761Z,73.10
2022-09-15T23:25:44.750Z,72.90
2022-09-15T23:30:52.750Z,72.70
2022-09-15T23:36:00.217Z,72.70
2022-09-15T23:41:03.621Z,72.60
2022-09-15T23:46:07.615Z,72.20
2022-09-15T23:51:12.324Z,71.80
2022-09-15T23:56:15.655Z,72.20
